Time;durP1;ratioP1;P1;durP2;ratioP2;P2;SDS_P1;SDS_P2;PMS_P1;PMS_P2;Temp;Humidity;BMP_temperature;BMP_pressure;BME280_temperature;BME280_humidity;BME280_pressure;Samples;Min_cycle;Max_cycle;Signal;HPM_P1;HPM_P2
2023/09/02 00:00:32;;;;;;;12.00;6.55;;;;;;;;;;5111708;28;20422;-75
2023/09/02 00:02:58;;;;;;;11.48;6.25;;;;;;;;;;5113503;28;20062;-76
2023/09/02 00:05:24;;;;;;;9.40;5.85;;;;;;;;;;5113866;28;20336;-76
2023/09/02 00:07:50;;;;;;;10.68;5.63;;;;;;;;;;5113935;28;20038;-75
2023/09/02 00:10:16;;;;;;;9.13;5.70;;;;;;;;;;5114024;28;20114;-76
2023/09/02 00:12:42;;;;;;;12.82;6.30;;;;;;;;;;5113751;28;20028;-77
2023/09/02 00:15:09;;;;;;;10.43;5.72;;;;;;;;;;5113890;28;20043;-75
2023/09/02 00:17:35;;;;;;;10.32;5.90;;;;;;;;;;5113872;28;20023;-74
2023/09/02 00:20:04;;;;;;;13.32;6.07;;;;;;;;;;5113890;28;20023;-76
2023/09/02 00:22:31;;;;;;;10.10;6.32;;;;;;;;;;5113569;28;20016;-75
2023/09/02 00:24:57;;;;;;;12.35;7.13;;;;;;;;;;5113606;28;20385;-75
2023/09/02 00:27:23;;;;;;;11.02;6.35;;;;;;;;;;5113616;28;20114;-76
2023/09/02 00:29:49;;;;;;;11.43;6.75;;;;;;;;;;5113727;28;20077;-76
2023/09/02 00:32:15;;;;;;;13.43;6.50;;;;;;;;;;5113394;28;20032;-76
2023/09/02 00:34:41;;;;;;;12.60;7.13;;;;;;;;;;5113411;28;20444;-76
2023/09/02 00:37:06;;;;;;;12.85;7.13;;;;;;;;;;5113299;28;20062;-75
2023/09/02 00:39:32;;;;;;;10.10;6.00;;;;;;;;;;5113515;28;20024;-75
2023/09/02 00:41:59;;;;;;;12.05;5.88;;;;;;;;;;5112918;28;20073;-75
2023/09/02 00:44:25;;;;;;;11.30;6.30;;;;;;;;;;5113367;28;20084;-74
2023/09/02 00:46:52;;;;;;;11.98;6.32;;;;;;;;;;5113795;28;20408;-74
2023/09/02 00:49:18;;;;;;;11.15;6.18;;;;;;;;;;5113503;28;20035;-75
2023/09/02 00:51:44;;;;;;;9.60;6.13;;;;;;;;;;5113513;28;20388;-75
2023/09/02 00:54:10;;;;;;;11.23;5.95;;;;;;;;;;5113130;28;20023;-75
2023/09/02 00:56:39;;;;;;;11.18;6.57;;;;;;;;;;5113396;28;20051;-74
2023/09/02 00:59:06;;;;;;;12.38;6.50;;;;;;;;;;5112966;28;20030;-76
2023/09/02 01:01:33;;;;;;;12.05;7.03;;;;;;;;;;5112954;28;20031;-75
2023/09/02 01:04:00;;;;;;;10.10;6.07;;;;;;;;;;5112677;28;20023;-75
2023/09/02 01:06:26;;;;;;;9.20;5.97;;;;;;;;;;5113090;28;20020;-75
2023/09/02 01:08:52;;;;;;;11.63;6.07;;;;;;;;;;5112839;28;20038;-76
2023/09/02 01:11:18;;;;;;;13.55;7.60;;;;;;;;;;5112743;28;20077;-75
2023/09/02 01:13:44;;;;;;;14.43;7.00;;;;;;;;;;5112518;28;20474;-75
2023/09/02 01:16:10;;;;;;;10.18;6.45;;;;;;;;;;5094639;28;20405;-75
2023/09/02 01:18:36;;;;;;;9.95;6.25;;;;;;;;;;5112574;28;20023;-74
2023/09/02 01:21:22;;;;;;;10.55;6.25;;;;;;;;;;5112935;28;20123;-75
2023/09/02 01:23:48;;;;;;;16.83;6.40;;;;;;;;;;5112652;28;20074;-75
2023/09/02 01:26:36;;;;;;;10.63;6.28;;;;;;;;;;5110884;27;20443;-75
2023/09/02 01:29:05;;;;;;;12.25;6.35;;;;;;;;;;5101580;28;20028;-76
2023/09/02 01:31:32;;;;;;;10.32;6.47;;;;;;;;;;5121858;27;20500;-75
2023/09/02 01:33:59;;;;;;;11.18;6.85;;;;;;;;;;5097837;27;20089;-75
2023/09/02 01:36:27;;;;;;;11.02;6.75;;;;;;;;;;5116351;27;20028;-75
2023/09/02 01:38:53;;;;;;;10.45;6.65;;;;;;;;;;5105029;28;20035;-75
2023/09/02 01:41:21;;;;;;;9.18;6.30;;;;;;;;;;5108502;27;20046;-75
2023/09/02 01:43:48;;;;;;;10.68;6.50;;;;;;;;;;5102905;28;20485;-75
2023/09/02 01:46:15;;;;;;;10.15;6.68;;;;;;;;;;5102192;27;20075;-75
2023/09/02 01:48:41;;;;;;;9.20;6.30;;;;;;;;;;5093662;28;20031;-74
2023/09/02 01:51:07;;;;;;;10.38;6.10;;;;;;;;;;5103101;28;20062;-75
2023/09/02 01:53:33;;;;;;;9.68;6.03;;;;;;;;;;5113439;27;20047;-75
2023/09/02 01:56:00;;;;;;;11.00;6.15;;;;;;;;;;5098180;28;20027;-75
2023/09/02 01:58:26;;;;;;;10.07;6.25;;;;;;;;;;5110748;28;20028;-76
2023/09/02 02:00:52;;;;;;;12.13;6.43;;;;;;;;;;5097856;28;20088;-75
2023/09/02 02:03:20;;;;;;;9.68;6.28;;;;;;;;;;5113615;28;20085;-75
2023/09/02 02:05:52;;;;;;;10.00;5.97;;;;;;;;;;5094416;28;20016;-74
2023/09/02 02:08:46;;;;;;;12.35;6.07;;;;;;;;;;5095454;28;20039;-75
2023/09/02 02:11:14;;;;;;;10.82;6.45;;;;;;;;;;5105078;28;20030;-74
2023/09/02 02:13:40;;;;;;;12.07;6.10;;;;;;;;;;5112729;28;20032;-75
2023/09/02 02:16:06;;;;;;;13.15;6.38;;;;;;;;;;5100171;28;20023;-75
2023/09/02 02:18:32;;;;;;;10.77;6.57;;;;;;;;;;5092665;28;20107;-75
2023/09/02 02:21:02;;;;;;;10.25;6.55;;;;;;;;;;5095459;28;20557;-75
2023/09/02 02:23:28;;;;;;;11.10;6.88;;;;;;;;;;5110614;28;20467;-75
2023/09/02 02:26:01;;;;;;;11.63;7.38;;;;;;;;;;5091277;28;20459;-74
2023/09/02 02:28:28;;;;;;;11.20;7.05;;;;;;;;;;5092291;28;20119;-75
2023/09/02 02:30:54;;;;;;;15.18;7.60;;;;;;;;;;5094340;28;20078;-76
2023/09/02 02:33:20;;;;;;;12.38;7.68;;;;;;;;;;5094563;28;20024;-75
2023/09/02 02:35:46;;;;;;;19.40;11.23;;;;;;;;;;5091878;28;20355;-74
2023/09/02 02:38:12;;;;;;;12.10;7.68;;;;;;;;;;5091572;28;20051;-76
2023/09/02 02:40:37;;;;;;;10.95;7.35;;;;;;;;;;5091785;28;20470;-75
2023/09/02 02:43:04;;;;;;;11.15;7.18;;;;;;;;;;5093361;28;20035;-75
2023/09/02 02:45:30;;;;;;;12.38;6.40;;;;;;;;;;5094965;28;20020;-74
2023/09/02 02:47:55;;;;;;;12.20;6.57;;;;;;;;;;5077384;28;20050;-74
2023/09/02 02:50:21;;;;;;;10.30;6.20;;;;;;;;;;5096023;28;20031;-73
2023/09/02 02:52:47;;;;;;;10.30;6.05;;;;;;;;;;5095511;28;20024;-73
2023/09/02 02:55:13;;;;;;;9.73;5.65;;;;;;;;;;5093494;28;20173;-76
2023/09/02 02:57:40;;;;;;;9.27;6.20;;;;;;;;;;5093431;28;20016;-75
2023/09/02 03:00:08;;;;;;;9.20;5.70;;;;;;;;;;5091455;28;20385;-73
2023/09/02 03:02:35;;;;;;;12.73;6.18;;;;;;;;;;5094502;28;20020;-74
2023/09/02 03:05:00;;;;;;;10.55;5.60;;;;;;;;;;5096631;28;20095;-73
2023/09/02 03:07:26;;;;;;;9.85;7.13;;;;;;;;;;5098051;28;20083;-73
2023/09/02 03:09:56;;;;;;;11.82;7.28;;;;;;;;;;5097614;28;20016;-74
2023/09/02 03:12:21;;;;;;;10.95;6.88;;;;;;;;;;5096789;28;20052;-74
2023/09/02 03:14:48;;;;;;;11.82;7.13;;;;;;;;;;5096964;28;20058;-74
2023/09/02 03:17:14;;;;;;;11.80;6.80;;;;;;;;;;5095850;28;20016;-75
2023/09/02 03:19:50;;;;;;;10.70;6.72;;;;;;;;;;5097033;28;20016;-73
2023/09/02 03:22:16;;;;;;;10.63;5.88;;;;;;;;;;5094894;28;20103;-77
2023/09/02 03:24:42;;;;;;;9.65;5.30;;;;;;;;;;5094357;28;20454;-76
2023/09/02 03:27:07;;;;;;;8.88;5.32;;;;;;;;;;5094366;28;20020;-77
2023/09/02 03:29:34;;;;;;;9.20;5.00;;;;;;;;;;5094458;28;20513;-74
2023/09/02 03:32:00;;;;;;;12.07;5.22;;;;;;;;;;5094144;28;20024;-73
2023/09/02 03:34:26;;;;;;;8.63;4.82;;;;;;;;;;5094534;28;20030;-72
2023/09/02 03:36:52;;;;;;;9.80;6.18;;;;;;;;;;5094378;28;20104;-74
2023/09/02 03:39:18;;;;;;;9.18;5.35;;;;;;;;;;5094110;28;20510;-73
2023/09/02 03:41:47;;;;;;;8.90;5.85;;;;;;;;;;5093970;28;20035;-74
2023/09/02 03:44:14;;;;;;;9.77;6.13;;;;;;;;;;5093961;28;20020;-73
2023/09/02 03:46:40;;;;;;;12.73;7.22;;;;;;;;;;5094010;28;20510;-74
2023/09/02 03:49:06;;;;;;;12.38;7.53;;;;;;;;;;5094072;28;20032;-73
2023/09/02 03:51:32;;;;;;;11.75;7.25;;;;;;;;;;5095071;28;20059;-72
2023/09/02 03:53:58;;;;;;;10.45;7.07;;;;;;;;;;5094709;28;20036;-72
2023/09/02 03:56:24;;;;;;;12.90;7.35;;;;;;;;;;5076639;28;20024;-73
2023/09/02 03:58:50;;;;;;;13.82;7.95;;;;;;;;;;5095228;28;20024;-73
2023/09/02 04:01:16;;;;;;;13.48;7.50;;;;;;;;;;5095275;28;20030;-75
2023/09/02 04:03:42;;;;;;;12.50;7.68;;;;;;;;;;5095131;28;20048;-74
2023/09/02 04:06:07;;;;;;;14.50;7.97;;;;;;;;;;5095684;28;20424;-73
2023/09/02 04:08:34;;;;;;;11.70;7.30;;;;;;;;;;5094915;28;20028;-73
2023/09/02 04:11:01;;;;;;;10.35;7.15;;;;;;;;;;5077074;28;20032;-73
2023/09/02 04:13:30;;;;;;;11.88;6.70;;;;;;;;;;5093207;28;20027;-73
2023/09/02 04:15:56;;;;;;;9.77;6.10;;;;;;;;;;5092571;28;20032;-73
2023/09/02 04:18:23;;;;;;;10.40;6.35;;;;;;;;;;5093373;28;20158;-73
2023/09/02 04:20:49;;;;;;;12.27;7.70;;;;;;;;;;5093171;28;20109;-73
2023/09/02 04:23:15;;;;;;;10.48;6.93;;;;;;;;;;5092857;28;20023;-73
2023/09/02 04:25:45;;;;;;;9.68;6.70;;;;;;;;;;5093326;28;20024;-73
2023/09/02 04:28:11;;;;;;;9.07;5.60;;;;;;;;;;5098342;28;20020;-76
2023/09/02 04:30:37;;;;;;;10.63;5.88;;;;;;;;;;5082351;28;20047;-72
2023/09/02 04:33:03;;;;;;;10.45;6.00;;;;;;;;;;5095188;28;20493;-76
2023/09/02 04:35:29;;;;;;;9.40;5.32;;;;;;;;;;5093642;28;20032;-73
2023/09/02 04:37:55;;;;;;;8.90;5.25;;;;;;;;;;5092948;28;20438;-73
2023/09/02 04:40:21;;;;;;;10.60;5.75;;;;;;;;;;5092857;28;20028;-73
2023/09/02 04:42:47;;;;;;;12.30;6.15;;;;;;;;;;5092620;28;20099;-73
2023/09/02 04:45:13;;;;;;;8.48;5.78;;;;;;;;;;5092838;28;20024;-74
2023/09/02 04:47:39;;;;;;;13.38;6.53;;;;;;;;;;5092806;28;20069;-73
2023/09/02 04:50:06;;;;;;;10.55;6.90;;;;;;;;;;5093312;28;20028;-77
2023/09/02 04:52:32;;;;;;;11.18;7.47;;;;;;;;;;5097808;28;20039;-75
2023/09/02 04:54:58;;;;;;;12.05;7.13;;;;;;;;;;5113049;28;20706;-77
2023/09/02 04:57:24;;;;;;;9.77;7.18;;;;;;;;;;5113442;28;20024;-76
2023/09/02 04:59:50;;;;;;;10.23;7.13;;;;;;;;;;5113131;28;20026;-76
2023/09/02 05:02:16;;;;;;;13.30;8.35;;;;;;;;;;5111095;28;20016;-75
2023/09/02 05:04:42;;;;;;;18.58;11.30;;;;;;;;;;5113039;28;20536;-74
2023/09/02 05:07:08;;;;;;;15.90;9.88;;;;;;;;;;5112641;28;20023;-75
2023/09/02 05:09:34;;;;;;;16.40;10.48;;;;;;;;;;5113092;28;20032;-75
2023/09/02 05:12:00;;;;;;;15.55;10.07;;;;;;;;;;5111978;28;20031;-75
2023/09/02 05:14:26;;;;;;;17.35;10.02;;;;;;;;;;5112673;28;20504;-74
2023/09/02 05:16:52;;;;;;;17.67;10.10;;;;;;;;;;5112683;28;20020;-75
2023/09/02 05:19:18;;;;;;;19.95;9.98;;;;;;;;;;5111591;28;20030;-74
2023/09/02 05:21:44;;;;;;;17.13;9.95;;;;;;;;;;5112776;28;20369;-75
2023/09/02 05:24:10;;;;;;;19.17;12.88;;;;;;;;;;5112567;28;20015;-75
2023/09/02 05:26:36;;;;;;;19.33;9.80;;;;;;;;;;5111109;28;20436;-76
2023/09/02 05:29:02;;;;;;;12.32;8.35;;;;;;;;;;5112215;28;20027;-73
2023/09/02 05:31:28;;;;;;;14.32;9.98;;;;;;;;;;5112627;28;20058;-74
2023/09/02 05:33:54;;;;;;;12.55;8.75;;;;;;;;;;5112225;28;20495;-77
2023/09/02 05:36:21;;;;;;;13.93;9.10;;;;;;;;;;5111809;28;20106;-78
2023/09/02 05:38:47;;;;;;;18.23;9.50;;;;;;;;;;5113464;28;20066;-76
2023/09/02 05:41:13;;;;;;;13.68;8.77;;;;;;;;;;5112874;28;20028;-73
2023/09/02 05:43:38;;;;;;;22.67;13.40;;;;;;;;;;5111666;28;20023;-75
2023/09/02 05:46:04;;;;;;;19.10;11.05;;;;;;;;;;5110369;28;20381;-74
2023/09/02 05:48:30;;;;;;;13.50;8.57;;;;;;;;;;5111727;28;20110;-74
2023/09/02 05:50:57;;;;;;;16.00;8.95;;;;;;;;;;5111682;28;20015;-74
2023/09/02 05:53:23;;;;;;;12.63;8.93;;;;;;;;;;5110503;28;20020;-74
2023/09/02 05:55:53;;;;;;;13.77;8.48;;;;;;;;;;5111951;28;20038;-74
2023/09/02 05:58:19;;;;;;;15.43;10.55;;;;;;;;;;5111715;28;20024;-74
2023/09/02 06:00:45;;;;;;;17.67;12.18;;;;;;;;;;5111909;28;20027;-73
2023/09/02 06:03:11;;;;;;;17.70;11.75;;;;;;;;;;5109864;28;20023;-74
2023/09/02 06:05:37;;;;;;;24.27;12.95;;;;;;;;;;5112943;28;20020;-76
2023/09/02 06:08:03;;;;;;;19.38;11.73;;;;;;;;;;5112533;28;20385;-74
2023/09/02 06:10:29;;;;;;;18.70;12.48;;;;;;;;;;5113115;28;20481;-78
2023/09/02 06:12:55;;;;;;;20.17;12.32;;;;;;;;;;5114749;28;20019;-73
2023/09/02 06:15:21;;;;;;;21.15;11.77;;;;;;;;;;5112790;28;20506;-74
2023/09/02 06:17:47;;;;;;;18.55;11.27;;;;;;;;;;5114091;28;20032;-73
2023/09/02 06:20:16;;;;;;;17.45;10.98;;;;;;;;;;5095451;28;20058;-74
2023/09/02 06:22:42;;;;;;;18.95;12.32;;;;;;;;;;5115585;28;20020;-74
2023/09/02 06:25:08;;;;;;;17.38;11.48;;;;;;;;;;5116628;28;20024;-75
2023/09/02 06:27:34;;;;;;;19.63;13.55;;;;;;;;;;5113095;28;20102;-76
2023/09/02 06:30:00;;;;;;;14.65;10.55;;;;;;;;;;5113104;28;20098;-77
2023/09/02 06:32:26;;;;;;;21.45;11.73;;;;;;;;;;5112815;28;20027;-75
2023/09/02 06:34:55;;;;;;;17.58;11.27;;;;;;;;;;5112498;28;20034;-75
2023/09/02 06:37:21;;;;;;;19.67;11.93;;;;;;;;;;5111628;28;20031;-74
2023/09/02 06:39:52;;;;;;;15.35;9.82;;;;;;;;;;5114522;28;20023;-74
2023/09/02 06:42:18;;;;;;;14.30;9.40;;;;;;;;;;5115368;28;20015;-75
2023/09/02 06:44:47;;;;;;;13.85;8.93;;;;;;;;;;5115524;28;20027;-74
2023/09/02 06:47:13;;;;;;;15.43;8.95;;;;;;;;;;5115546;28;20028;-74
2023/09/02 06:49:39;;;;;;;14.98;8.82;;;;;;;;;;5115403;28;20054;-73
2023/09/02 06:52:05;;;;;;;13.50;8.57;;;;;;;;;;5115202;28;20055;-73
2023/09/02 06:54:31;;;;;;;13.88;7.72;;;;;;;;;;5115077;28;20027;-74
2023/09/02 06:56:57;;;;;;;12.73;7.20;;;;;;;;;;5115389;28;20028;-75
2023/09/02 06:59:25;;;;;;;13.65;8.60;;;;;;;;;;5115163;28;20023;-74
2023/09/02 07:01:51;;;;;;;13.05;7.65;;;;;;;;;;5115225;28;20522;-75
2023/09/02 07:04:17;;;;;;;10.85;6.10;;;;;;;;;;5114889;28;20024;-73
2023/09/02 07:06:43;;;;;;;7.15;4.95;;;;;;;;;;5116277;28;20016;-74
2023/09/02 07:09:10;;;;;;;8.40;5.60;;;;;;;;;;5115376;28;20055;-72
2023/09/02 07:11:36;;;;;;;8.85;5.05;;;;;;;;;;5115010;28;20028;-74
2023/09/02 07:14:02;;;;;;;6.95;4.57;;;;;;;;;;5114663;28;20032;-75
2023/09/02 07:16:28;;;;;;;10.68;5.40;;;;;;;;;;5114440;28;20034;-75
2023/09/02 07:18:55;;;;;;;8.18;4.45;;;;;;;;;;5114225;28;20381;-73
2023/09/02 07:21:24;;;;;;;11.07;4.30;;;;;;;;;;5114850;28;20072;-74
2023/09/02 07:23:51;;;;;;;7.00;3.80;;;;;;;;;;5095670;28;20015;-73
2023/09/02 07:26:17;;;;;;;6.70;3.08;;;;;;;;;;5114380;28;20020;-73
2023/09/02 07:28:43;;;;;;;7.20;3.40;;;;;;;;;;5115204;28;20060;-73
2023/09/02 07:31:09;;;;;;;6.32;3.05;;;;;;;;;;5097769;28;20500;-74
2023/09/02 07:33:36;;;;;;;7.50;2.92;;;;;;;;;;5115388;28;20023;-73
2023/09/02 07:36:08;;;;;;;12.20;5.05;;;;;;;;;;5115837;28;20030;-74
2023/09/02 07:38:35;;;;;;;10.70;4.55;;;;;;;;;;5116817;28;20068;-74
2023/09/02 07:41:01;;;;;;;7.85;4.70;;;;;;;;;;5099201;28;20095;-76
2023/09/02 07:43:27;;;;;;;8.43;3.42;;;;;;;;;;5117624;28;20381;-74
2023/09/02 07:45:54;;;;;;;8.75;3.10;;;;;;;;;;5116332;28;20027;-74
2023/09/02 07:48:20;;;;;;;8.40;4.07;;;;;;;;;;5115251;28;20024;-74
2023/09/02 07:50:46;;;;;;;9.52;2.63;;;;;;;;;;5114462;28;20049;-74
2023/09/02 07:53:13;;;;;;;12.45;5.40;;;;;;;;;;5114721;28;20030;-73
2023/09/02 07:55:39;;;;;;;9.48;5.25;;;;;;;;;;5116698;28;20035;-73
2023/09/02 07:58:05;;;;;;;9.25;2.80;;;;;;;;;;5114605;28;20457;-73
2023/09/02 08:00:35;;;;;;;7.00;2.75;;;;;;;;;;5113777;28;20484;-72
2023/09/02 08:03:01;;;;;;;5.47;2.80;;;;;;;;;;5113539;28;20089;-73
2023/09/02 08:05:28;;;;;;;5.38;3.33;;;;;;;;;;5113771;28;20023;-74
2023/09/02 08:07:54;;;;;;;7.97;2.90;;;;;;;;;;5113957;28;20045;-72
2023/09/02 08:10:20;;;;;;;5.80;2.70;;;;;;;;;;5113874;28;20023;-73
2023/09/02 08:12:46;;;;;;;9.18;2.63;;;;;;;;;;5112113;28;20110;-73
2023/09/02 08:15:12;;;;;;;7.15;2.75;;;;;;;;;;5114230;28;20039;-72
2023/09/02 08:17:39;;;;;;;7.60;4.50;;;;;;;;;;5121401;27;20106;-74
2023/09/02 08:20:05;;;;;;;10.40;4.30;;;;;;;;;;5142482;27;20019;-73
2023/09/02 08:22:31;;;;;;;5.47;3.17;;;;;;;;;;5143200;27;20024;-74
2023/09/02 08:24:57;;;;;;;6.97;2.95;;;;;;;;;;5146282;27;20396;-74
2023/09/02 08:27:24;;;;;;;6.93;3.40;;;;;;;;;;5144255;27;20079;-75
2023/09/02 08:29:50;;;;;;;8.40;3.90;;;;;;;;;;5144442;27;20022;-74
2023/09/02 08:32:16;;;;;;;7.82;3.58;;;;;;;;;;5143574;27;20023;-75
2023/09/02 08:34:42;;;;;;;7.20;3.40;;;;;;;;;;5142443;27;20357;-74
2023/09/02 08:37:08;;;;;;;6.45;2.90;;;;;;;;;;5141999;27;20086;-75
2023/09/02 08:39:34;;;;;;;5.60;2.83;;;;;;;;;;5142716;27;20034;-73
2023/09/02 08:42:00;;;;;;;7.20;3.35;;;;;;;;;;5136679;27;20027;-74
2023/09/02 08:44:32;;;;;;;5.40;2.65;;;;;;;;;;5135929;27;20020;-75
2023/09/02 08:47:00;;;;;;;5.15;3.03;;;;;;;;;;5135680;27;20048;-74
2023/09/02 08:49:26;;;;;;;5.78;2.40;;;;;;;;;;5118519;27;20118;-75
2023/09/02 08:51:53;;;;;;;6.18;2.58;;;;;;;;;;5135689;27;20022;-75
2023/09/02 08:54:21;;;;;;;3.53;2.05;;;;;;;;;;5134629;27;20035;-72
2023/09/02 08:56:48;;;;;;;6.65;2.40;;;;;;;;;;5133697;27;20536;-73
2023/09/02 08:59:14;;;;;;;3.17;1.88;;;;;;;;;;5133333;27;20027;-74
2023/09/02 09:01:44;;;;;;;6.45;2.25;;;;;;;;;;5132790;27;20079;-74
2023/09/02 09:04:11;;;;;;;3.40;2.10;;;;;;;;;;5133115;27;20027;-72
2023/09/02 09:06:38;;;;;;;4.25;2.15;;;;;;;;;;5133312;27;20020;-72
2023/09/02 09:09:04;;;;;;;3.30;2.03;;;;;;;;;;5133857;27;20068;-72
2023/09/02 09:11:32;;;;;;;3.65;1.70;;;;;;;;;;5133473;27;20037;-75
2023/09/02 09:14:01;;;;;;;6.22;2.83;;;;;;;;;;5133008;27;20035;-74
2023/09/02 09:16:33;;;;;;;4.88;1.67;;;;;;;;;;5133243;27;20023;-73
2023/09/02 09:18:59;;;;;;;4.75;2.10;;;;;;;;;;5133282;27;20106;-73
2023/09/02 09:21:25;;;;;;;4.70;2.08;;;;;;;;;;5132634;27;20497;-73
2023/09/02 09:23:51;;;;;;;3.67;1.70;;;;;;;;;;5132988;27;20035;-75
2023/09/02 09:26:19;;;;;;;4.05;1.70;;;;;;;;;;5133371;27;20034;-75
2023/09/02 09:28:53;;;;;;;3.75;1.73;;;;;;;;;;5133060;27;20055;-74
2023/09/02 09:31:19;;;;;;;2.13;1.17;;;;;;;;;;5132878;27;20472;-75
2023/09/02 09:33:49;;;;;;;5.30;1.50;;;;;;;;;;5133289;27;20027;-74
2023/09/02 09:36:17;;;;;;;2.45;1.15;;;;;;;;;;5135821;27;20023;-75
2023/09/02 09:38:43;;;;;;;3.75;1.50;;;;;;;;;;5134292;27;20475;-76
2023/09/02 09:41:09;;;;;;;5.20;2.38;;;;;;;;;;5133696;27;20032;-74
2023/09/02 09:43:35;;;;;;;3.28;1.88;;;;;;;;;;5132769;27;20019;-75
2023/09/02 09:46:01;;;;;;;4.10;1.80;;;;;;;;;;5132491;27;20030;-72
2023/09/02 09:48:27;;;;;;;3.78;1.55;;;;;;;;;;5132715;27;20031;-73
2023/09/02 09:50:55;;;;;;;3.72;1.40;;;;;;;;;;5133168;27;20039;-78
2023/09/02 09:53:21;;;;;;;2.60;1.15;;;;;;;;;;5132610;27;20024;-75
2023/09/02 09:55:47;;;;;;;4.22;1.60;;;;;;;;;;5132549;27;20034;-74
2023/09/02 09:58:21;;;;;;;2.90;1.60;;;;;;;;;;5132500;27;20114;-74
2023/09/02 10:00:52;;;;;;;3.15;1.80;;;;;;;;;;5132687;28;20095;-73
2023/09/02 10:03:18;;;;;;;4.10;1.70;;;;;;;;;;5133396;28;20064;-75
2023/09/02 10:05:44;;;;;;;2.40;1.42;;;;;;;;;;5132620;28;20029;-76
2023/09/02 10:08:10;;;;;;;6.50;1.65;;;;;;;;;;5132504;28;20114;-76
2023/09/02 10:10:40;;;;;;;6.20;1.90;;;;;;;;;;5132835;28;20038;-75
2023/09/02 10:13:06;;;;;;;3.30;1.90;;;;;;;;;;5132624;27;20023;-75
2023/09/02 10:15:32;;;;;;;4.47;1.70;;;;;;;;;;5136384;27;20039;-75
2023/09/02 10:17:59;;;;;;;3.80;1.42;;;;;;;;;;5137259;27;20111;-77
2023/09/02 10:20:29;;;;;;;3.55;1.40;;;;;;;;;;5139642;27;20026;-78
2023/09/02 10:23:04;;;;;;;7.13;1.70;;;;;;;;;;5141127;27;20033;-79
2023/09/02 10:25:34;;;;;;;7.78;1.85;;;;;;;;;;5138469;27;20026;-77
2023/09/02 10:28:01;;;;;;;4.93;2.92;;;;;;;;;;5137083;27;20092;-75
2023/09/02 10:30:32;;;;;;;5.80;3.15;;;;;;;;;;5121375;27;20027;-77
2023/09/02 10:33:05;;;;;;;3.25;2.00;;;;;;;;;;5139813;27;20015;-73
2023/09/02 10:35:32;;;;;;;5.07;1.50;;;;;;;;;;5137417;27;20019;-77
2023/09/02 10:38:02;;;;;;;4.00;1.70;;;;;;;;;;5136249;27;20532;-75
2023/09/02 10:40:30;;;;;;;6.50;3.67;;;;;;;;;;5136346;27;20015;-74
2023/09/02 10:42:56;;;;;;;3.88;1.80;;;;;;;;;;5136562;27;20504;-75
2023/09/02 10:45:22;;;;;;;2.63;1.60;;;;;;;;;;5135963;27;20042;-75
2023/09/02 10:47:49;;;;;;;4.38;1.45;;;;;;;;;;5135823;27;20031;-76
2023/09/02 10:50:16;;;;;;;4.50;2.00;;;;;;;;;;5136042;27;20031;-74
2023/09/02 10:52:42;;;;;;;4.90;1.95;;;;;;;;;;5135645;27;20031;-75
2023/09/02 10:55:09;;;;;;;4.25;1.58;;;;;;;;;;5135777;27;20023;-75
2023/09/02 10:57:45;;;;;;;2.03;1.35;;;;;;;;;;5135353;27;20036;-74
2023/09/02 11:00:12;;;;;;;2.67;1.60;;;;;;;;;;5135595;27;20027;-75
2023/09/02 11:02:39;;;;;;;4.10;2.10;;;;;;;;;;5135113;27;20461;-75
2023/09/02 11:05:05;;;;;;;4.10;1.90;;;;;;;;;;5135621;27;20079;-75
2023/09/02 11:07:33;;;;;;;4.70;2.53;;;;;;;;;;5135871;27;20050;-75
2023/09/02 11:09:59;;;;;;;7.82;2.80;;;;;;;;;;5135573;27;20022;-74
2023/09/02 11:12:27;;;;;;;5.13;2.40;;;;;;;;;;5136917;27;20500;-73
2023/09/02 11:15:08;;;;;;;5.63;2.03;;;;;;;;;;5137454;27;20027;-74
2023/09/02 11:17:43;;;;;;;4.82;1.70;;;;;;;;;;5137799;27;20023;-75
2023/09/02 11:20:10;;;;;;;3.10;1.45;;;;;;;;;;5138348;27;20019;-74
2023/09/02 11:22:55;;;;;;;3.22;1.40;;;;;;;;;;5141525;27;20075;-74
2023/09/02 11:25:27;;;;;;;4.20;1.30;;;;;;;;;;5123579;27;20042;-75
2023/09/02 11:27:55;;;;;;;5.15;2.38;;;;;;;;;;5138250;27;20149;-74
2023/09/02 11:30:22;;;;;;;4.93;1.65;;;;;;;;;;5120099;27;20027;-74
2023/09/02 11:32:49;;;;;;;5.30;2.20;;;;;;;;;;5121119;27;20476;-74
2023/09/02 11:35:25;;;;;;;4.55;1.73;;;;;;;;;;5124950;27;20031;-75
2023/09/02 11:37:51;;;;;;;2.35;1.40;;;;;;;;;;5122227;27;20491;-74
2023/09/02 11:40:18;;;;;;;4.03;2.00;;;;;;;;;;5123921;27;20035;-75
2023/09/02 11:43:02;;;;;;;4.13;1.60;;;;;;;;;;5136660;27;20065;-75
2023/09/02 11:45:30;;;;;;;3.88;1.70;;;;;;;;;;5138439;27;20043;-77
2023/09/02 11:47:56;;;;;;;2.90;1.38;;;;;;;;;;5139206;27;20040;-75
2023/09/02 11:50:22;;;;;;;4.63;2.28;;;;;;;;;;5120883;27;20111;-76
2023/09/02 11:52:58;;;;;;;2.58;1.38;;;;;;;;;;5135269;27;20037;-76
2023/09/02 11:55:24;;;;;;;4.43;1.45;;;;;;;;;;5116531;27;20106;-75
2023/09/02 11:57:51;;;;;;;2.92;1.27;;;;;;;;;;5134586;27;20031;-75
2023/09/02 12:00:21;;;;;;;2.33;1.40;;;;;;;;;;5134722;27;20073;-76
2023/09/02 12:02:47;;;;;;;2.95;1.30;;;;;;;;;;5135208;27;20015;-76
2023/09/02 12:05:14;;;;;;;4.28;1.20;;;;;;;;;;5134618;27;20055;-75
2023/09/02 12:07:41;;;;;;;2.80;1.60;;;;;;;;;;5134771;27;20054;-75
2023/09/02 12:10:08;;;;;;;3.25;1.40;;;;;;;;;;5135045;27;20438;-76
2023/09/02 12:12:35;;;;;;;2.88;0.90;;;;;;;;;;5135629;27;20532;-76
2023/09/02 12:15:04;;;;;;;2.10;1.20;;;;;;;;;;5134739;27;20066;-76
2023/09/02 12:17:31;;;;;;;7.30;3.45;;;;;;;;;;5135321;27;20031;-80
2023/09/02 12:19:57;;;;;;;4.53;1.60;;;;;;;;;;5135122;27;20071;-76
2023/09/02 12:22:23;;;;;;;2.95;1.45;;;;;;;;;;5135185;27;20019;-76
2023/09/02 12:24:49;;;;;;;3.67;1.40;;;;;;;;;;5115811;27;20637;-75
2023/09/02 12:27:18;;;;;;;3.63;1.30;;;;;;;;;;5135381;27;20027;-76
2023/09/02 12:29:54;;;;;;;3.25;1.70;;;;;;;;;;5135074;27;20034;-76
2023/09/02 12:32:20;;;;;;;4.32;1.40;;;;;;;;;;5135520;27;20030;-78
2023/09/02 12:34:46;;;;;;;3.65;1.40;;;;;;;;;;5118592;27;20048;-76
2023/09/02 12:37:19;;;;;;;1.48;1.05;;;;;;;;;;5118082;27;20015;-76
2023/09/02 12:39:45;;;;;;;;;;;;;;;;;;5137196;27;20096;-78
2023/09/02 12:42:14;;;;;;;4.15;2.40;;;;;;;;;;5133382;27;20313;-76
2023/09/02 12:45:08;;;;;;;5.72;1.20;;;;;;;;;;5133772;27;20522;-74
2023/09/02 12:47:34;;;;;;;3.13;1.50;;;;;;;;;;5130057;27;20027;-75
2023/09/02 12:50:04;;;;;;;1.90;1.20;;;;;;;;;;5133815;27;20023;-74
2023/09/02 12:52:31;;;;;;;8.27;6.15;;;;;;;;;;5133664;27;20031;-75
2023/09/02 12:55:00;;;;;;;4.32;1.40;;;;;;;;;;5133858;27;20497;-75
2023/09/02 12:57:27;;;;;;;2.92;1.63;;;;;;;;;;5133127;27;20035;-72
2023/09/02 12:59:53;;;;;;;2.17;1.48;;;;;;;;;;5133246;27;20079;-75
2023/09/02 13:02:19;;;;;;;3.88;1.63;;;;;;;;;;5132823;27;20023;-73
2023/09/02 13:04:46;;;;;;;4.18;1.20;;;;;;;;;;5133113;27;20019;-75
2023/09/02 13:07:12;;;;;;;2.65;1.33;;;;;;;;;;5133166;27;20024;-74
2023/09/02 13:09:40;;;;;;;1.98;1.38;;;;;;;;;;5133192;27;20031;-73
2023/09/02 13:12:07;;;;;;;2.45;1.23;;;;;;;;;;5133089;27;20058;-73
2023/09/02 13:14:33;;;;;;;4.63;1.48;;;;;;;;;;5132951;27;20041;-73
2023/09/02 13:16:59;;;;;;;2.03;1.60;;;;;;;;;;5133196;27;20050;-72
2023/09/02 13:19:25;;;;;;;2.47;1.70;;;;;;;;;;5133246;27;20480;-72
2023/09/02 13:21:52;;;;;;;2.45;1.25;;;;;;;;;;5132796;27;20019;-74
2023/09/02 13:24:19;;;;;;;4.78;4.03;;;;;;;;;;5133145;27;20030;-73
2023/09/02 13:26:46;;;;;;;2.97;1.40;;;;;;;;;;5133302;27;20023;-73
2023/09/02 13:29:13;;;;;;;9.45;1.60;;;;;;;;;;5134011;27;20099;-78
2023/09/02 13:31:39;;;;;;;4.28;1.33;;;;;;;;;;5135922;27;20034;-76
2023/09/02 13:34:06;;;;;;;1.63;1.20;;;;;;;;;;5133042;27;20020;-75
2023/09/02 13:36:32;;;;;;;2.65;1.40;;;;;;;;;;5133254;27;20026;-75
2023/09/02 13:38:58;;;;;;;3.33;1.20;;;;;;;;;;5133691;27;20055;-78
2023/09/02 13:41:25;;;;;;;3.60;1.90;;;;;;;;;;5133186;27;20038;-73
2023/09/02 13:43:51;;;;;;;3.05;1.40;;;;;;;;;;5132955;27;20035;-74
2023/09/02 13:46:17;;;;;;;2.65;1.20;;;;;;;;;;5132607;27;20030;-75
2023/09/02 13:48:44;;;;;;;2.53;1.20;;;;;;;;;;5131932;27;20015;-75
2023/09/02 13:51:13;;;;;;;2.05;0.93;;;;;;;;;;5132988;27;20520;-74
2023/09/02 13:53:39;;;;;;;2.15;1.05;;;;;;;;;;5132361;27;20072;-74
2023/09/02 13:56:05;;;;;;;2.72;1.30;;;;;;;;;;5132706;27;20030;-74
2023/09/02 13:58:35;;;;;;;3.55;1.73;;;;;;;;;;5131780;27;20106;-72
2023/09/02 14:01:03;;;;;;;3.33;1.70;;;;;;;;;;5132261;28;20024;-76
2023/09/02 14:03:30;;;;;;;3.50;1.40;;;;;;;;;;5132434;28;20027;-73
2023/09/02 14:05:56;;;;;;;5.75;1.35;;;;;;;;;;5132514;28;20039;-73
2023/09/02 14:08:35;;;;;;;4.65;1.73;;;;;;;;;;5132475;28;20102;-73
2023/09/02 14:11:03;;;;;;;2.55;1.50;;;;;;;;;;5132474;28;20026;-73
2023/09/02 14:13:31;;;;;;;2.60;1.30;;;;;;;;;;5131973;28;20023;-74
2023/09/02 14:15:57;;;;;;;4.57;1.60;;;;;;;;;;5132029;28;20038;-75
2023/09/02 14:18:23;;;;;;;5.35;1.40;;;;;;;;;;5131920;28;20027;-74
2023/09/02 14:20:49;;;;;;;9.00;2.28;;;;;;;;;;5132080;28;20024;-74
2023/09/02 14:23:15;;;;;;;2.22;1.35;;;;;;;;;;5132132;28;20404;-74
2023/09/02 14:25:41;;;;;;;1.88;1.10;;;;;;;;;;5132051;28;20023;-73
2023/09/02 14:28:07;;;;;;;5.32;1.30;;;;;;;;;;5131995;28;20094;-73
2023/09/02 14:30:34;;;;;;;2.97;1.70;;;;;;;;;;5132281;28;20399;-73
2023/09/02 14:33:00;;;;;;;1.60;1.20;;;;;;;;;;5132023;28;20027;-73
2023/09/02 14:35:26;;;;;;;4.50;1.60;;;;;;;;;;5132143;28;20326;-75